sensor_id;sensor_type;location;lat;lon;timestamp;pressure;altitude;pressure_sealevel;temperature;humidity
49194;BME280;35029;50.804;12.866;2023-05-03T00:00:34;98692.72;;;8.36;74.49
49194;BME280;35029;50.804;12.866;2023-05-03T00:03:00;98697.84;;;8.38;73.50
49194;BME280;35029;50.804;12.866;2023-05-03T00:05:28;98703.34;;;8.44;74.41
49194;BME280;35029;50.804;12.866;2023-05-03T00:07:54;98683.78;;;8.29;74.20
49194;BME280;35029;50.804;12.866;2023-05-03T00:10:21;98705.25;;;8.34;75.06
49194;BME280;35029;50.804;12.866;2023-05-03T00:12:47;98703.25;;;8.28;73.45
49194;BME280;35029;50.804;12.866;2023-05-03T00:15:12;98701.06;;;8.23;73.79
49194;BME280;35029;50.804;12.866;2023-05-03T00:17:38;98700.88;;;8.17;74.49
49194;BME280;35029;50.804;12.866;2023-05-03T00:20:04;98696.31;;;8.27;76.35
49194;BME280;35029;50.804;12.866;2023-05-03T00:22:30;98674.00;;;8.21;75.05
49194;BME280;35029;50.804;12.866;2023-05-03T00:24:58;98705.13;;;8.36;73.22
49194;BME280;35029;50.804;12.866;2023-05-03T00:27:23;98700.31;;;8.39;74.61
49194;BME280;35029;50.804;12.866;2023-05-03T00:29:50;98679.81;;;8.25;74.68
49194;BME280;35029;50.804;12.866;2023-05-03T00:32:17;98695.78;;;8.23;74.07
49194;BME280;35029;50.804;12.866;2023-05-03T00:34:43;98705.53;;;8.23;75.94
49194;BME280;35029;50.804;12.866;2023-05-03T00:37:08;98706.22;;;8.25;74.87
49194;BME280;35029;50.804;12.866;2023-05-03T00:39:34;98700.94;;;8.25;75.02
49194;BME280;35029;50.804;12.866;2023-05-03T00:42:02;98701.75;;;8.25;75.47
49194;BME280;35029;50.804;12.866;2023-05-03T00:44:28;98699.28;;;8.24;73.19
49194;BME280;35029;50.804;12.866;2023-05-03T00:46:54;98690.66;;;8.22;73.97
49194;BME280;35029;50.804;12.866;2023-05-03T00:49:24;98689.88;;;8.29;74.47
49194;BME280;35029;50.804;12.866;2023-05-03T00:51:52;98667.56;;;8.24;75.44
49194;BME280;35029;50.804;12.866;2023-05-03T00:54:17;98683.25;;;8.25;74.15
49194;BME280;35029;50.804;12.866;2023-05-03T00:56:44;98685.53;;;8.20;73.89
49194;BME280;35029;50.804;12.866;2023-05-03T00:59:11;98691.69;;;8.03;73.51
49194;BME280;35029;50.804;12.866;2023-05-03T01:01:37;98682.16;;;8.02;75.07
49194;BME280;35029;50.804;12.866;2023-05-03T01:04:04;98683.50;;;8.06;75.68
49194;BME280;35029;50.804;12.866;2023-05-03T01:09:07;98687.97;;;8.13;75.48
49194;BME280;35029;50.804;12.866;2023-05-03T01:11:46;98692.28;;;8.15;75.50
49194;BME280;35029;50.804;12.866;2023-05-03T01:14:35;98689.09;;;8.11;72.73
49194;BME280;35029;50.804;12.866;2023-05-03T01:17:13;98695.91;;;8.13;74.35
49194;BME280;35029;50.804;12.866;2023-05-03T01:20:03;98673.75;;;8.06;73.88
49194;BME280;35029;50.804;12.866;2023-05-03T01:25:22;98683.72;;;7.94;73.66
49194;BME280;35029;50.804;12.866;2023-05-03T01:27:48;98695.47;;;8.00;75.06
49194;BME280;35029;50.804;12.866;2023-05-03T01:30:14;98665.53;;;7.83;75.35
49194;BME280;35029;50.804;12.866;2023-05-03T01:33:16;98695.13;;;7.95;76.43
49194;BME280;35029;50.804;12.866;2023-05-03T01:35:56;98687.38;;;7.93;76.38
49194;BME280;35029;50.804;12.866;2023-05-03T01:38:29;98684.31;;;7.80;75.28
49194;BME280;35029;50.804;12.866;2023-05-03T01:40:59;98680.81;;;7.79;74.04
49194;BME280;35029;50.804;12.866;2023-05-03T01:43:28;98676.56;;;7.78;76.07
49194;BME280;35029;50.804;12.866;2023-05-03T01:45:57;98677.38;;;7.79;76.12
49194;BME280;35029;50.804;12.866;2023-05-03T01:48:23;98674.00;;;7.69;76.92
49194;BME280;35029;50.804;12.866;2023-05-03T01:50:49;98653.34;;;7.64;76.19
49194;BME280;35029;50.804;12.866;2023-05-03T01:53:14;98668.41;;;7.72;76.04
49194;BME280;35029;50.804;12.866;2023-05-03T01:55:41;98676.63;;;7.69;77.02
49194;BME280;35029;50.804;12.866;2023-05-03T01:58:07;98670.75;;;7.75;76.91
49194;BME280;35029;50.804;12.866;2023-05-03T02:00:32;98674.03;;;7.77;76.22
49194;BME280;35029;50.804;12.866;2023-05-03T02:02:58;98653.88;;;7.68;76.44
49194;BME280;35029;50.804;12.866;2023-05-03T02:05:23;98680.47;;;7.74;76.99
49194;BME280;35029;50.804;12.866;2023-05-03T02:07:50;98666.06;;;7.69;78.55
49194;BME280;35029;50.804;12.866;2023-05-03T02:10:16;98673.00;;;7.70;78.64
49194;BME280;35029;50.804;12.866;2023-05-03T02:12:42;98659.22;;;7.58;78.78
49194;BME280;35029;50.804;12.866;2023-05-03T02:15:09;98674.25;;;7.57;79.03
49194;BME280;35029;50.804;12.866;2023-05-03T02:17:35;98676.41;;;7.62;79.00
49194;BME280;35029;50.804;12.866;2023-05-03T02:20:04;98677.03;;;7.56;79.20
49194;BME280;35029;50.804;12.866;2023-05-03T02:22:36;98671.38;;;7.51;80.59
49194;BME280;35029;50.804;12.866;2023-05-03T02:25:02;98676.50;;;7.52;80.96
49194;BME280;35029;50.804;12.866;2023-05-03T02:27:27;98674.88;;;7.51;81.38
49194;BME280;35029;50.804;12.866;2023-05-03T02:29:53;98662.44;;;7.43;82.70
49194;BME280;35029;50.804;12.866;2023-05-03T02:32:19;98671.00;;;7.45;82.51
49194;BME280;35029;50.804;12.866;2023-05-03T02:34:47;98655.34;;;7.26;82.83
49194;BME280;35029;50.804;12.866;2023-05-03T02:37:17;98667.31;;;7.38;82.34
49194;BME280;35029;50.804;12.866;2023-05-03T02:39:44;98671.09;;;7.36;82.46
49194;BME280;35029;50.804;12.866;2023-05-03T02:42:11;98676.06;;;7.39;80.81
49194;BME280;35029;50.804;12.866;2023-05-03T02:44:37;98668.22;;;7.29;81.52
49194;BME280;35029;50.804;12.866;2023-05-03T02:47:03;98683.69;;;7.42;78.79
49194;BME280;35029;50.804;12.866;2023-05-03T02:49:29;98661.44;;;7.26;81.61
49194;BME280;35029;50.804;12.866;2023-05-03T02:51:55;98683.00;;;7.40;80.64
49194;BME280;35029;50.804;12.866;2023-05-03T02:54:23;98665.59;;;7.29;81.98
49194;BME280;35029;50.804;12.866;2023-05-03T02:56:48;98663.50;;;7.33;82.46
49194;BME280;35029;50.804;12.866;2023-05-03T02:59:14;98682.56;;;7.44;80.60
49194;BME280;35029;50.804;12.866;2023-05-03T03:01:40;98678.75;;;7.47;79.69
49194;BME280;35029;50.804;12.866;2023-05-03T03:04:06;98677.94;;;7.47;79.01
49194;BME280;35029;50.804;12.866;2023-05-03T03:06:31;98672.00;;;7.44;78.03
49194;BME280;35029;50.804;12.866;2023-05-03T03:08:58;98662.53;;;7.34;79.08
49194;BME280;35029;50.804;12.866;2023-05-03T03:11:23;98688.19;;;7.50;79.04
49194;BME280;35029;50.804;12.866;2023-05-03T03:13:50;98690.00;;;7.49;80.97
49194;BME280;35029;50.804;12.866;2023-05-03T03:16:16;98691.28;;;7.45;83.71
49194;BME280;35029;50.804;12.866;2023-05-03T03:18:42;98686.31;;;7.42;82.81
49194;BME280;35029;50.804;12.866;2023-05-03T03:21:08;98703.94;;;7.41;83.08
49194;BME280;35029;50.804;12.866;2023-05-03T03:23:35;98684.44;;;7.34;82.32
49194;BME280;35029;50.804;12.866;2023-05-03T03:26:00;98689.41;;;7.37;81.62
49194;BME280;35029;50.804;12.866;2023-05-03T03:28:26;98684.75;;;7.31;80.58
49194;BME280;35029;50.804;12.866;2023-05-03T03:30:53;98692.13;;;7.27;80.99
49194;BME280;35029;50.804;12.866;2023-05-03T03:33:22;98700.41;;;7.33;82.06
49194;BME280;35029;50.804;12.866;2023-05-03T03:35:50;98708.34;;;7.33;82.73
49194;BME280;35029;50.804;12.866;2023-05-03T03:38:17;98713.38;;;7.26;82.45
49194;BME280;35029;50.804;12.866;2023-05-03T03:40:53;98712.25;;;7.28;83.17
49194;BME280;35029;50.804;12.866;2023-05-03T03:43:19;98701.63;;;7.20;83.64
49194;BME280;35029;50.804;12.866;2023-05-03T03:45:45;98702.91;;;7.16;83.44
49194;BME280;35029;50.804;12.866;2023-05-03T03:48:13;98722.09;;;7.26;85.59
49194;BME280;35029;50.804;12.866;2023-05-03T03:50:39;98725.75;;;7.25;84.61
49194;BME280;35029;50.804;12.866;2023-05-03T03:53:04;98732.81;;;7.25;82.95
49194;BME280;35029;50.804;12.866;2023-05-03T03:55:31;98722.09;;;7.26;82.13
49194;BME280;35029;50.804;12.866;2023-05-03T03:57:57;98710.66;;;7.18;82.88
49194;BME280;35029;50.804;12.866;2023-05-03T04:00:24;98722.72;;;7.20;82.50
49194;BME280;35029;50.804;12.866;2023-05-03T04:02:58;98728.38;;;7.25;84.44
49194;BME280;35029;50.804;12.866;2023-05-03T04:05:23;98732.31;;;7.21;84.31
49194;BME280;35029;50.804;12.866;2023-05-03T04:07:49;98740.28;;;7.30;82.92
49194;BME280;35029;50.804;12.866;2023-05-03T04:10:16;98745.72;;;7.28;81.14
49194;BME280;35029;50.804;12.866;2023-05-03T04:12:42;98744.44;;;7.32;83.22
49194;BME280;35029;50.804;12.866;2023-05-03T04:15:08;98745.19;;;7.24;81.38
49194;BME280;35029;50.804;12.866;2023-05-03T04:17:35;98752.19;;;7.34;82.37
49194;BME280;35029;50.804;12.866;2023-05-03T04:20:04;98751.50;;;7.32;80.32
49194;BME280;35029;50.804;12.866;2023-05-03T04:22:32;98761.91;;;7.33;79.45
49194;BME280;35029;50.804;12.866;2023-05-03T04:24:58;98738.53;;;7.20;78.75
49194;BME280;35029;50.804;12.866;2023-05-03T04:27:28;98753.75;;;7.26;78.67
49194;BME280;35029;50.804;12.866;2023-05-03T04:29:54;98762.66;;;7.25;79.50
49194;BME280;35029;50.804;12.866;2023-05-03T04:32:21;98749.72;;;7.04;77.84
49194;BME280;35029;50.804;12.866;2023-05-03T04:34:49;98768.97;;;7.15;79.01
49194;BME280;35029;50.804;12.866;2023-05-03T04:37:17;98775.69;;;7.09;77.52
49194;BME280;35029;50.804;12.866;2023-05-03T04:39:45;98767.22;;;7.05;76.08
49194;BME280;35029;50.804;12.866;2023-05-03T04:42:11;98775.69;;;7.09;76.50
49194;BME280;35029;50.804;12.866;2023-05-03T04:44:41;98778.69;;;7.14;76.16
49194;BME280;35029;50.804;12.866;2023-05-03T04:47:07;98774.09;;;7.16;76.88
49194;BME280;35029;50.804;12.866;2023-05-03T04:49:33;98781.78;;;7.27;76.96
49194;BME280;35029;50.804;12.866;2023-05-03T04:51:59;98785.56;;;7.25;75.80
49194;BME280;35029;50.804;12.866;2023-05-03T04:54:26;98780.00;;;7.28;75.71
49194;BME280;35029;50.804;12.866;2023-05-03T04:56:52;98780.81;;;7.28;75.61
49194;BME280;35029;50.804;12.866;2023-05-03T04:59:18;98784.59;;;7.26;73.90
49194;BME280;35029;50.804;12.866;2023-05-03T05:01:44;98787.69;;;7.21;74.60
49194;BME280;35029;50.804;12.866;2023-05-03T05:04:10;98785.94;;;7.30;75.93
49194;BME280;35029;50.804;12.866;2023-05-03T05:06:41;98785.72;;;7.41;75.50
49194;BME280;35029;50.804;12.866;2023-05-03T05:09:20;98791.38;;;7.47;75.88
49194;BME280;35029;50.804;12.866;2023-05-03T05:11:48;98796.34;;;7.32;74.07
49194;BME280;35029;50.804;12.866;2023-05-03T05:14:15;98799.38;;;7.37;73.49
49194;BME280;35029;50.804;12.866;2023-05-03T05:16:41;98802.56;;;7.40;73.79
49194;BME280;35029;50.804;12.866;2023-05-03T05:19:07;98801.34;;;7.71;77.59
49194;BME280;35029;50.804;12.866;2023-05-03T05:21:33;98791.59;;;7.89;75.92
49194;BME280;35029;50.804;12.866;2023-05-03T05:23:59;98785.06;;;7.57;70.86
49194;BME280;35029;50.804;12.866;2023-05-03T05:26:28;98783.94;;;7.60;72.15
49194;BME280;35029;50.804;12.866;2023-05-03T05:28:54;98804.06;;;7.79;71.57
49194;BME280;35029;50.804;12.866;2023-05-03T05:31:20;98801.75;;;7.76;71.44
49194;BME280;35029;50.804;12.866;2023-05-03T05:33:46;98815.09;;;7.74;69.29
49194;BME280;35029;50.804;12.866;2023-05-03T05:36:13;98793.38;;;7.63;68.50
49194;BME280;35029;50.804;12.866;2023-05-03T05:38:39;98799.69;;;7.70;66.75
49194;BME280;35029;50.804;12.866;2023-05-03T05:41:06;98812.66;;;7.81;68.96
49194;BME280;35029;50.804;12.866;2023-05-03T05:43:31;98812.81;;;7.79;68.45
49194;BME280;35029;50.804;12.866;2023-05-03T05:45:57;98817.19;;;7.89;68.29
49194;BME280;35029;50.804;12.866;2023-05-03T05:48:24;98816.06;;;7.91;67.04
49194;BME280;35029;50.804;12.866;2023-05-03T05:50:49;98819.06;;;7.97;67.63
49194;BME280;35029;50.804;12.866;2023-05-03T05:53:15;98801.25;;;7.99;67.87
49194;BME280;35029;50.804;12.866;2023-05-03T05:55:51;98829.06;;;8.11;63.38
49194;BME280;35029;50.804;12.866;2023-05-03T05:58:17;98831.50;;;8.04;64.61
49194;BME280;35029;50.804;12.866;2023-05-03T06:00:47;98827.59;;;7.90;62.46
49194;BME280;35029;50.804;12.866;2023-05-03T06:03:14;98826.22;;;7.86;62.22
49194;BME280;35029;50.804;12.866;2023-05-03T06:05:41;98829.56;;;7.88;62.13
49194;BME280;35029;50.804;12.866;2023-05-03T06:08:09;98809.88;;;7.83;63.76
49194;BME280;35029;50.804;12.866;2023-05-03T06:10:36;98819.66;;;8.08;64.46
49194;BME280;35029;50.804;12.866;2023-05-03T06:13:02;98825.16;;;8.15;63.56
49194;BME280;35029;50.804;12.866;2023-05-03T06:15:28;98824.00;;;8.18;64.37
49194;BME280;35029;50.804;12.866;2023-05-03T06:17:54;98828.06;;;8.30;64.04
49194;BME280;35029;50.804;12.866;2023-05-03T06:20:19;98828.28;;;8.37;64.55
49194;BME280;35029;50.804;12.866;2023-05-03T06:22:47;98828.13;;;8.38;63.49
49194;BME280;35029;50.804;12.866;2023-05-03T06:25:12;98831.69;;;8.47;64.70
49194;BME280;35029;50.804;12.866;2023-05-03T06:27:42;98836.22;;;8.37;63.12
49194;BME280;35029;50.804;12.866;2023-05-03T06:30:09;98815.56;;;8.32;62.93
49194;BME280;35029;50.804;12.866;2023-05-03T06:32:37;98820.78;;;8.24;62.03
49194;BME280;35029;50.804;12.866;2023-05-03T06:35:05;98832.53;;;8.29;63.18
49194;BME280;35029;50.804;12.866;2023-05-03T06:37:31;98827.72;;;8.25;61.59
49194;BME280;35029;50.804;12.866;2023-05-03T06:39:57;98834.41;;;8.37;60.94
49194;BME280;35029;50.804;12.866;2023-05-03T06:42:22;98840.78;;;8.26;61.96
49194;BME280;35029;50.804;12.866;2023-05-03T06:45:00;98833.06;;;8.15;61.14
49194;BME280;35029;50.804;12.866;2023-05-03T06:47:26;98838.22;;;8.17;61.97
49194;BME280;35029;50.804;12.866;2023-05-03T06:49:51;98828.44;;;8.35;61.48
49194;BME280;35029;50.804;12.866;2023-05-03T06:52:17;98829.44;;;8.52;60.79
49194;BME280;35029;50.804;12.866;2023-05-03T06:54:43;98826.25;;;8.49;60.99
49194;BME280;35029;50.804;12.866;2023-05-03T06:57:08;98830.09;;;8.54;59.97
49194;BME280;35029;50.804;12.866;2023-05-03T06:59:34;98838.06;;;8.62;59.67
49194;BME280;35029;50.804;12.866;2023-05-03T07:02:00;98829.16;;;8.63;59.42
49194;BME280;35029;50.804;12.866;2023-05-03T07:04:26;98816.44;;;8.59;59.54
49194;BME280;35029;50.804;12.866;2023-05-03T07:06:51;98831.03;;;8.71;59.38
49194;BME280;35029;50.804;12.866;2023-05-03T07:09:17;98830.72;;;8.74;59.09
49194;BME280;35029;50.804;12.866;2023-05-03T07:11:43;98796.41;;;8.56;57.95
49194;BME280;35029;50.804;12.866;2023-05-03T07:14:14;98827.16;;;8.39;57.62
49194;BME280;35029;50.804;12.866;2023-05-03T07:16:40;98831.09;;;8.35;60.91
49194;BME280;35029;50.804;12.866;2023-05-03T07:19:05;98827.59;;;8.53;62.35
49194;BME280;35029;50.804;12.866;2023-05-03T07:21:31;98826.56;;;8.72;58.46
49194;BME280;35029;50.804;12.866;2023-05-03T07:23:58;98825.53;;;8.65;58.75
49194;BME280;35029;50.804;12.866;2023-05-03T07:26:24;98826.53;;;8.63;60.43
49194;BME280;35029;50.804;12.866;2023-05-03T07:28:51;98818.00;;;8.78;59.85
49194;BME280;35029;50.804;12.866;2023-05-03T07:31:16;98827.66;;;8.95;56.94
49194;BME280;35029;50.804;12.866;2023-05-03T07:33:42;98818.06;;;8.86;56.95
49194;BME280;35029;50.804;12.866;2023-05-03T07:36:08;98796.41;;;8.56;58.65
49194;BME280;35029;50.804;12.866;2023-05-03T07:38:33;98779.50;;;8.49;62.96
49194;BME280;35029;50.804;12.866;2023-05-03T07:40:59;98813.66;;;8.69;59.99
49194;BME280;35029;50.804;12.866;2023-05-03T07:43:24;98826.56;;;8.72;61.74
49194;BME280;35029;50.804;12.866;2023-05-03T07:45:50;98802.88;;;8.62;59.77
49194;BME280;35029;50.804;12.866;2023-05-03T07:48:15;98815.50;;;8.76;60.46
49194;BME280;35029;50.804;12.866;2023-05-03T07:50:42;98817.16;;;9.12;69.56
49194;BME280;35029;50.804;12.866;2023-05-03T07:53:08;98801.63;;;9.17;59.66
49194;BME280;35029;50.804;12.866;2023-05-03T07:55:34;98814.06;;;9.25;57.40
49194;BME280;35029;50.804;12.866;2023-05-03T07:58:01;98808.63;;;9.26;58.72
49194;BME280;35029;50.804;12.866;2023-05-03T08:00:26;98806.31;;;9.23;56.29
49194;BME280;35029;50.804;12.866;2023-05-03T08:02:52;98817.47;;;9.52;57.17
49194;BME280;35029;50.804;12.866;2023-05-03T08:05:18;98812.81;;;9.54;57.26
49194;BME280;35029;50.804;12.866;2023-05-03T08:07:44;98814.66;;;9.53;56.61
49194;BME280;35029;50.804;12.866;2023-05-03T08:10:10;98814.63;;;9.37;57.12
49194;BME280;35029;50.804;12.866;2023-05-03T08:12:35;98822.56;;;9.37;57.46
49194;BME280;35029;50.804;12.866;2023-05-03T08:15:01;98814.44;;;9.30;56.59
49194;BME280;35029;50.804;12.866;2023-05-03T08:17:29;98792.84;;;9.08;55.99
49194;BME280;35029;50.804;12.866;2023-05-03T08:19:56;98810.38;;;9.09;57.03
49194;BME280;35029;50.804;12.866;2023-05-03T08:22:21;98818.47;;;9.08;57.59
49194;BME280;35029;50.804;12.866;2023-05-03T08:24:49;98824.75;;;9.07;57.83
49194;BME280;35029;50.804;12.866;2023-05-03T08:27:15;98815.78;;;9.00;56.88
49194;BME280;35029;50.804;12.866;2023-05-03T08:29:41;98826.25;;;9.09;56.12
49194;BME280;35029;50.804;12.866;2023-05-03T08:32:07;98813.16;;;9.51;55.21
49194;BME280;35029;50.804;12.866;2023-05-03T08:34:32;98810.50;;;9.51;54.38
49194;BME280;35029;50.804;12.866;2023-05-03T08:36:58;98814.97;;;9.67;54.76
49194;BME280;35029;50.804;12.866;2023-05-03T08:39:23;98818.34;;;10.10;54.17
49194;BME280;35029;50.804;12.866;2023-05-03T08:41:52;98808.69;;;10.67;52.86
49194;BME280;35029;50.804;12.866;2023-05-03T08:44:22;98816.75;;;10.90;50.92
49194;BME280;35029;50.804;12.866;2023-05-03T08:46:50;98801.31;;;10.93;50.89
49194;BME280;35029;50.804;12.866;2023-05-03T08:49:16;98806.28;;;11.36;51.69
49194;BME280;35029;50.804;12.866;2023-05-03T08:51:43;98797.25;;;11.45;47.88
49194;BME280;35029;50.804;12.866;2023-05-03T08:54:13;98787.53;;;11.61;49.26
49194;BME280;35029;50.804;12.866;2023-05-03T08:56:41;98784.44;;;11.49;46.94
49194;BME280;35029;50.804;12.866;2023-05-03T08:59:09;98801.88;;;11.75;48.56
49194;BME280;35029;50.804;12.866;2023-05-03T09:01:35;98805.00;;;11.78;46.74
49194;BME280;35029;50.804;12.866;2023-05-03T09:04:01;98793.47;;;11.86;47.45
49194;BME280;35029;50.804;12.866;2023-05-03T09:06:28;98798.63;;;11.64;47.65
49194;BME280;35029;50.804;12.866;2023-05-03T09:08:54;98794.97;;;11.65;49.74
49194;BME280;35029;50.804;12.866;2023-05-03T09:11:25;98795.31;;;11.62;49.33
49194;BME280;35029;50.804;12.866;2023-05-03T09:13:52;98798.16;;;11.61;47.79
49194;BME280;35029;50.804;12.866;2023-05-03T09:16:25;98791.81;;;11.39;50.11
49194;BME280;35029;50.804;12.866;2023-05-03T09:19:02;98791.25;;;10.80;49.64
49194;BME280;35029;50.804;12.866;2023-05-03T09:21:29;98787.19;;;10.45;51.14
49194;BME280;35029;50.804;12.866;2023-05-03T09:23:58;98797.16;;;10.99;51.36
49194;BME280;35029;50.804;12.866;2023-05-03T09:26:31;98797.19;;;11.30;49.98
49194;BME280;35029;50.804;12.866;2023-05-03T09:28:58;98793.81;;;11.37;49.36
49194;BME280;35029;50.804;12.866;2023-05-03T09:31:26;98783.41;;;11.58;49.18
49194;BME280;35029;50.804;12.866;2023-05-03T09:33:52;98788.91;;;11.80;49.45
49194;BME280;35029;50.804;12.866;2023-05-03T09:36:18;98782.97;;;11.70;47.50
49194;BME280;35029;50.804;12.866;2023-05-03T09:38:43;98792.91;;;11.76;49.71
49194;BME280;35029;50.804;12.866;2023-05-03T09:41:09;98786.25;;;12.03;47.65
49194;BME280;35029;50.804;12.866;2023-05-03T09:43:47;98787.91;;;11.81;47.75
49194;BME280;35029;50.804;12.866;2023-05-03T09:46:14;98783.50;;;11.88;47.25
49194;BME280;35029;50.804;12.866;2023-05-03T09:48:40;98778.78;;;12.22;49.71
49194;BME280;35029;50.804;12.866;2023-05-03T09:51:06;98780.69;;;12.13;46.38
49194;BME280;35029;50.804;12.866;2023-05-03T09:53:34;98778.25;;;12.26;48.36
49194;BME280;35029;50.804;12.866;2023-05-03T09:56:10;98767.06;;;12.46;46.64
49194;BME280;35029;50.804;12.866;2023-05-03T09:58:40;98771.97;;;12.57;45.52
49194;BME280;35029;50.804;12.866;2023-05-03T10:01:05;98772.06;;;12.79;45.75
49194;BME280;35029;50.804;12.866;2023-05-03T10:03:43;98772.38;;;13.06;47.17
49194;BME280;35029;50.804;12.866;2023-05-03T10:06:26;98772.25;;;13.14;45.14
49194;BME280;35029;50.804;12.866;2023-05-03T10:09:55;98759.47;;;12.88;44.63
49194;BME280;35029;50.804;12.866;2023-05-03T10:12:06;98754.25;;;12.79;44.57
49194;BME280;35029;50.804;12.866;2023-05-03T10:14:32;98758.25;;;13.05;46.11
49194;BME280;35029;50.804;12.866;2023-05-03T10:17:02;98765.78;;;12.87;45.17
49194;BME280;35029;50.804;12.866;2023-05-03T10:22:04;98755.56;;;13.20;44.45
49194;BME280;35029;50.804;12.866;2023-05-03T10:24:35;98741.00;;;13.01;43.34
49194;BME280;35029;50.804;12.866;2023-05-03T10:27:01;98749.50;;;13.11;42.76
49194;BME280;35029;50.804;12.866;2023-05-03T10:32:35;98751.88;;;13.58;44.33
49194;BME280;35029;50.804;12.866;2023-05-03T10:35:14;98753.53;;;13.22;41.46
49194;BME280;35029;50.804;12.866;2023-05-03T10:37:41;98748.25;;;13.44;41.50
49194;BME280;35029;50.804;12.866;2023-05-03T10:40:10;98747.88;;;13.68;42.37
49194;BME280;35029;50.804;12.866;2023-05-03T10:42:37;98739.53;;;14.00;45.32
49194;BME280;35029;50.804;12.866;2023-05-03T10:45:03;98745.78;;;14.07;42.36
49194;BME280;35029;50.804;12.866;2023-05-03T10:47:29;98740.19;;;14.30;45.45
49194;BME280;35029;50.804;12.866;2023-05-03T10:55:11;98732.44;;;14.42;42.14
49194;BME280;35029;50.804;12.866;2023-05-03T10:57:47;98736.16;;;14.48;40.22
49194;BME280;35029;50.804;12.866;2023-05-03T11:00:16;98725.19;;;14.29;41.22
49194;BME280;35029;50.804;12.866;2023-05-03T11:03:49;98734.19;;;14.92;43.12
49194;BME280;35029;50.804;12.866;2023-05-03T11:05:55;98722.16;;;15.23;43.05
49194;BME280;35029;50.804;12.866;2023-05-03T11:08:23;98725.00;;;15.08;41.32
49194;BME280;35029;50.804;12.866;2023-05-03T11:10:57;98730.00;;;14.76;41.83
49194;BME280;35029;50.804;12.866;2023-05-03T11:13:24;98730.16;;;15.16;43.15
49194;BME280;35029;50.804;12.866;2023-05-03T11:15:52;98734.91;;;15.20;41.25
49194;BME280;35029;50.804;12.866;2023-05-03T11:18:19;98732.50;;;15.52;43.44
49194;BME280;35029;50.804;12.866;2023-05-03T11:20:45;98729.25;;;15.77;41.33
49194;BME280;35029;50.804;12.866;2023-05-03T11:23:11;98734.84;;;16.02;40.60
49194;BME280;35029;50.804;12.866;2023-05-03T11:25:37;98731.09;;;15.77;38.54
49194;BME280;35029;50.804;12.866;2023-05-03T11:28:03;98722.25;;;15.69;38.46
49194;BME280;35029;50.804;12.866;2023-05-03T11:30:32;98729.41;;;15.35;37.92
49194;BME280;35029;50.804;12.866;2023-05-03T11:33:01;98726.88;;;15.14;39.24
49194;BME280;35029;50.804;12.866;2023-05-03T11:35:29;98727.28;;;15.11;38.53
49194;BME280;35029;50.804;12.866;2023-05-03T11:37:56;98721.00;;;15.45;40.83
49194;BME280;35029;50.804;12.866;2023-05-03T11:40:46;98727.75;;;15.34;39.74
49194;BME280;35029;50.804;12.866;2023-05-03T11:43:17;98726.81;;;15.00;37.26
49194;BME280;35029;50.804;12.866;2023-05-03T11:45:44;98725.97;;;14.58;38.89
49194;BME280;35029;50.804;12.866;2023-05-03T11:48:13;98719.25;;;15.04;41.17
49194;BME280;35029;50.804;12.866;2023-05-03T11:50:52;98729.19;;;15.37;38.05
49194;BME280;35029;50.804;12.866;2023-05-03T11:53:22;98723.94;;;15.84;40.10
49194;BME280;35029;50.804;12.866;2023-05-03T11:55:50;98712.22;;;15.85;37.91
49194;BME280;35029;50.804;12.866;2023-05-03T11:58:24;98719.59;;;15.76;37.35
49194;BME280;35029;50.804;12.866;2023-05-03T12:00:55;98724.94;;;15.69;38.02
49194;BME280;35029;50.804;12.866;2023-05-03T12:03:25;98719.00;;;16.14;40.42
49194;BME280;35029;50.804;12.866;2023-05-03T12:05:52;98729.19;;;16.58;41.60
49194;BME280;35029;50.804;12.866;2023-05-03T12:08:18;98728.41;;;16.50;38.44
49194;BME280;35029;50.804;12.866;2023-05-03T12:10:46;98705.44;;;16.02;36.59
49194;BME280;35029;50.804;12.866;2023-05-03T12:13:12;98721.03;;;16.39;38.85
49194;BME280;35029;50.804;12.866;2023-05-03T12:15:39;98717.84;;;16.69;38.46
49194;BME280;35029;50.804;12.866;2023-05-03T12:18:09;98715.53;;;16.79;38.10
49194;BME280;35029;50.804;12.866;2023-05-03T12:20:36;98721.06;;;16.98;38.34
49194;BME280;35029;50.804;12.866;2023-05-03T12:23:06;98712.22;;;16.05;36.89
49194;BME280;35029;50.804;12.866;2023-05-03T12:25:33;98713.66;;;15.87;36.76
49194;BME280;35029;50.804;12.866;2023-05-03T12:28:04;98700.88;;;16.10;40.44
49194;BME280;35029;50.804;12.866;2023-05-03T12:30:31;98697.09;;;16.44;37.01
49194;BME280;35029;50.804;12.866;2023-05-03T12:32:57;98694.28;;;16.32;37.72
49194;BME280;35029;50.804;12.866;2023-05-03T12:35:24;98698.22;;;16.95;39.63
49194;BME280;35029;50.804;12.866;2023-05-03T12:37:50;98680.88;;;16.39;37.10
49194;BME280;35029;50.804;12.866;2023-05-03T12:40:17;98695.22;;;17.17;38.10
49194;BME280;35029;50.804;12.866;2023-05-03T12:42:44;98696.81;;;17.56;38.17
49194;BME280;35029;50.804;12.866;2023-05-03T12:45:11;98694.81;;;17.13;36.57
49194;BME280;35029;50.804;12.866;2023-05-03T12:47:37;98697.09;;;17.48;36.84
49194;BME280;35029;50.804;12.866;2023-05-03T12:50:03;98691.00;;;17.34;34.40
49194;BME280;35029;50.804;12.866;2023-05-03T12:52:29;98681.16;;;16.76;35.86
49194;BME280;35029;50.804;12.866;2023-05-03T12:54:56;98688.56;;;16.74;36.50
49194;BME280;35029;50.804;12.866;2023-05-03T12:57:22;98683.75;;;17.03;37.06
49194;BME280;35029;50.804;12.866;2023-05-03T12:59:48;98695.84;;;17.76;39.38
49194;BME280;35029;50.804;12.866;2023-05-03T13:02:19;98690.31;;;18.40;36.76
49194;BME280;35029;50.804;12.866;2023-05-03T13:04:45;98677.19;;;18.69;37.48
49194;BME280;35029;50.804;12.866;2023-05-03T13:07:10;98685.19;;;18.38;34.29
49194;BME280;35029;50.804;12.866;2023-05-03T13:09:44;98675.25;;;18.39;34.54
49194;BME280;35029;50.804;12.866;2023-05-03T13:12:13;98681.59;;;18.45;34.96
49194;BME280;35029;50.804;12.866;2023-05-03T13:14:40;98666.78;;;18.42;36.28
49194;BME280;35029;50.804;12.866;2023-05-03T13:17:07;98673.78;;;18.24;34.24